createdAt,value
2019-02-23T00:01:11.631Z,15.40
2019-02-23T00:03:52.505Z,15.80
2019-02-23T00:09:38.411Z,14.53
2019-02-23T00:12:19.490Z,13.73
2019-02-23T00:15:00.599Z,15.27
2019-02-23T00:17:41.321Z,15.47
2019-02-23T00:20:22.214Z,14.40
2019-02-23T00:23:02.996Z,13.17
2019-02-23T00:25:43.798Z,13.40
2019-02-23T00:28:24.438Z,13.07
2019-02-23T00:31:05.360Z,12.77
2019-02-23T00:37:05.158Z,11.93
2019-02-23T00:39:45.862Z,14.77
2019-02-23T00:42:26.606Z,13.47
2019-02-23T00:48:26.114Z,12.53
2019-02-23T00:51:06.975Z,12.43
2019-02-23T00:54:06.825Z,11.63
2019-02-23T00:56:47.851Z,13.40
2019-02-23T00:59:28.779Z,14.30
2019-02-23T01:02:09.374Z,13.83
2019-02-23T01:04:49.996Z,13.20
2019-02-23T01:07:30.334Z,12.67
2019-02-23T01:10:11.192Z,13.53
2019-02-23T01:12:51.884Z,13.63
2019-02-23T01:15:32.497Z,13.60
2019-02-23T01:18:13.324Z,12.17
2019-02-23T01:20:54.005Z,13.00
2019-02-23T01:23:34.614Z,12.07
2019-02-23T01:26:15.101Z,10.47
2019-02-23T01:28:55.453Z,10.57
2019-02-23T01:34:55.134Z,8.70
2019-02-23T01:37:35.900Z,8.73
2019-02-23T01:40:16.250Z,10.03
2019-02-23T01:42:56.866Z,10.37
2019-02-23T01:45:42.382Z,8.27
2019-02-23T01:48:20.418Z,9.43
2019-02-23T01:51:01.055Z,10.37
2019-02-23T01:53:41.710Z,9.63
2019-02-23T01:56:22.514Z,7.80
2019-02-23T01:59:03.282Z,8.20
2019-02-23T02:01:43.782Z,9.13
2019-02-23T02:04:24.705Z,7.97
2019-02-23T02:07:05.386Z,8.97
2019-02-23T02:09:46.110Z,7.23
2019-02-23T02:12:26.971Z,6.90
2019-02-23T02:15:07.393Z,7.83
2019-02-23T02:17:48.041Z,7.83
2019-02-23T02:20:28.729Z,9.53
2019-02-23T02:23:09.171Z,9.37
2019-02-23T02:25:49.543Z,8.20
2019-02-23T02:28:30.846Z,9.27
2019-02-23T02:31:11.857Z,9.70
2019-02-23T02:33:52.351Z,9.40
2019-02-23T02:36:33.107Z,8.50
2019-02-23T02:39:13.865Z,7.93
2019-02-23T02:41:54.561Z,9.20
2019-02-23T02:44:35.194Z,7.93
2019-02-23T02:47:15.763Z,8.10
2019-02-23T02:49:56.630Z,9.07
2019-02-23T02:52:37.107Z,9.37
2019-02-23T03:01:33.819Z,8.70
2019-02-23T03:04:14.239Z,8.57
2019-02-23T03:06:54.915Z,9.20
2019-02-23T03:09:35.883Z,8.90
2019-02-23T03:12:16.639Z,7.97
2019-02-23T03:14:57.458Z,8.03
2019-02-23T03:17:37.980Z,8.97
2019-02-23T03:20:18.642Z,8.53
2019-02-23T03:22:59.410Z,9.57
2019-02-23T03:25:40.277Z,8.83
2019-02-23T03:28:20.757Z,9.07
2019-02-23T03:31:01.711Z,8.57
2019-02-23T03:36:50.890Z,7.87
2019-02-23T03:39:31.407Z,7.93
2019-02-23T03:42:11.918Z,8.07
2019-02-23T03:44:52.294Z,9.03
2019-02-23T03:47:32.842Z,7.90
2019-02-23T03:50:13.287Z,7.93
2019-02-23T03:53:13.015Z,8.00
2019-02-23T03:55:54.246Z,8.53
2019-02-23T03:58:34.986Z,8.70
2019-02-23T04:04:42.870Z,7.47
2019-02-23T04:07:23.919Z,7.93
2019-02-23T04:13:12.464Z,7.83
2019-02-23T04:15:53.342Z,7.80
2019-02-23T04:18:33.959Z,7.27
2019-02-23T04:21:14.479Z,9.27
2019-02-23T04:23:55.484Z,7.73
2019-02-23T04:29:41.608Z,8.87
2019-02-23T04:32:22.093Z,9.20
2019-02-23T04:35:02.575Z,9.07
2019-02-23T04:37:43.374Z,11.43
2019-02-23T04:40:24.177Z,9.57
2019-02-23T04:43:04.782Z,10.63
2019-02-23T04:45:45.280Z,10.93
2019-02-23T04:48:25.764Z,10.27
2019-02-23T04:51:14.288Z,10.57
2019-02-23T04:53:49.059Z,11.13
2019-02-23T04:56:29.530Z,12.23
2019-02-23T04:59:10.203Z,11.73
2019-02-23T05:01:50.720Z,11.87
2019-02-23T05:04:31.404Z,11.93
2019-02-23T05:10:17.260Z,13.43
2019-02-23T05:12:57.837Z,13.87
2019-02-23T05:15:38.683Z,12.77
2019-02-23T05:18:19.402Z,14.37
2019-02-23T05:21:00.558Z,14.10
2019-02-23T05:23:41.350Z,14.23
2019-02-23T05:26:22.121Z,13.13
2019-02-23T05:29:02.930Z,12.17
2019-02-23T05:31:43.947Z,14.50
2019-02-23T05:34:44.215Z,13.93
2019-02-23T05:37:25.355Z,13.97
2019-02-23T05:40:06.018Z,13.40
2019-02-23T05:42:46.388Z,14.50
2019-02-23T05:45:27.406Z,15.97
2019-02-23T05:48:08.489Z,13.73
2019-02-23T05:50:49.347Z,15.03
2019-02-23T05:53:30.141Z,13.80
2019-02-23T05:56:15.169Z,15.33
2019-02-23T05:58:52.981Z,14.40
2019-02-23T06:01:33.559Z,13.13
2019-02-23T06:04:14.274Z,15.67
2019-02-23T06:06:54.947Z,15.97
2019-02-23T06:09:35.490Z,13.10
2019-02-23T06:12:16.024Z,15.50
2019-02-23T06:14:56.386Z,14.70
2019-02-23T06:17:36.812Z,14.33
2019-02-23T06:20:17.239Z,15.50
2019-02-23T06:22:57.905Z,14.33
2019-02-23T06:28:58.138Z,14.73
2019-02-23T06:34:44.622Z,14.77
2019-02-23T06:37:25.195Z,15.47
2019-02-23T06:40:06.239Z,15.87
2019-02-23T06:42:47.034Z,14.53
2019-02-23T06:45:27.606Z,14.93
2019-02-23T06:48:08.665Z,14.60
2019-02-23T06:50:49.131Z,14.47
2019-02-23T06:53:29.820Z,16.80
2019-02-23T06:56:10.313Z,14.60
2019-02-23T06:58:51.296Z,14.93
2019-02-23T07:01:32.062Z,14.90
2019-02-23T07:04:12.812Z,14.70
2019-02-23T07:06:53.375Z,15.80
2019-02-23T07:09:34.396Z,14.67
2019-02-23T07:12:16.198Z,15.43
2019-02-23T07:14:56.995Z,14.70
2019-02-23T07:17:37.815Z,15.83
2019-02-23T07:23:38.179Z,15.23
2019-02-23T07:29:01.337Z,15.70
2019-02-23T07:31:42.107Z,15.83
2019-02-23T07:34:22.535Z,14.27
2019-02-23T07:37:03.084Z,15.23
2019-02-23T07:39:43.653Z,15.33
2019-02-23T07:42:24.648Z,16.07
2019-02-23T07:45:05.582Z,15.97
2019-02-23T07:47:46.309Z,16.63
2019-02-23T07:50:26.930Z,15.10
2019-02-23T07:53:07.371Z,15.77
2019-02-23T07:55:47.774Z,18.40
2019-02-23T07:58:28.270Z,15.60
2019-02-23T08:01:08.860Z,16.97
2019-02-23T08:03:49.551Z,14.40
2019-02-23T08:06:30.047Z,16.53
2019-02-23T08:09:11.545Z,14.93
2019-02-23T08:11:52.614Z,14.83
2019-02-23T08:14:33.591Z,14.60
2019-02-23T08:17:14.360Z,16.17
2019-02-23T08:19:55.258Z,17.17
2019-02-23T08:22:37.599Z,16.83
2019-02-23T08:25:18.348Z,14.30
2019-02-23T08:27:59.016Z,15.90
2019-02-23T08:30:39.615Z,16.63
2019-02-23T08:33:20.480Z,15.73
2019-02-23T08:36:01.251Z,14.87
2019-02-23T08:38:42.005Z,15.67
2019-02-23T08:44:41.383Z,15.17
2019-02-23T08:47:22.138Z,14.07
2019-02-23T08:50:03.143Z,16.07
2019-02-23T08:52:49.121Z,15.37
2019-02-23T08:55:26.851Z,14.87
2019-02-23T08:58:07.316Z,15.10
2019-02-23T09:00:48.640Z,13.83
2019-02-23T09:03:29.070Z,15.27
2019-02-23T09:06:09.667Z,14.93
2019-02-23T09:08:50.274Z,16.00
2019-02-23T09:11:30.694Z,16.80
2019-02-23T09:14:11.558Z,17.43
2019-02-23T09:16:52.338Z,14.13
2019-02-23T09:19:33.119Z,16.43
2019-02-23T09:22:13.639Z,16.80
2019-02-23T09:24:54.286Z,15.90
2019-02-23T09:27:35.026Z,14.70
2019-02-23T09:30:16.028Z,14.23
2019-02-23T09:32:56.815Z,15.63
2019-02-23T09:35:37.566Z,15.73
2019-02-23T09:38:18.159Z,14.43
2019-02-23T09:40:59.002Z,16.93
2019-02-23T09:43:39.747Z,16.23
2019-02-23T09:46:20.487Z,16.97
2019-02-23T09:49:01.368Z,17.13
2019-02-23T09:51:41.828Z,17.93
2019-02-23T09:54:22.998Z,16.73
2019-02-23T09:57:03.726Z,16.83
2019-02-23T09:59:44.523Z,17.83
2019-02-23T10:02:25.294Z,17.80
2019-02-23T10:05:05.862Z,17.17
2019-02-23T10:07:46.332Z,17.50
2019-02-23T10:10:27.106Z,16.50
2019-02-23T10:13:08.090Z,15.93
2019-02-23T10:15:48.966Z,15.53
2019-02-23T10:18:29.742Z,15.47
2019-02-23T10:24:15.863Z,16.53
2019-02-23T10:26:56.622Z,16.40
2019-02-23T10:29:37.267Z,15.93
2019-02-23T10:32:17.586Z,16.10
2019-02-23T10:34:58.166Z,15.70
2019-02-23T10:37:38.754Z,15.40
2019-02-23T10:40:19.344Z,17.27
2019-02-23T10:43:00.057Z,17.10
2019-02-23T10:45:40.754Z,16.20
2019-02-23T10:48:21.379Z,15.90
2019-02-23T10:51:02.215Z,16.17
2019-02-23T10:53:42.649Z,18.80
2019-02-23T10:56:23.154Z,13.87
2019-02-23T10:59:04.070Z,14.50
2019-02-23T11:01:44.771Z,16.53
2019-02-23T11:04:25.309Z,16.27
2019-02-23T11:07:05.983Z,18.30
2019-02-23T11:09:46.547Z,15.90
2019-02-23T11:12:27.297Z,16.80
2019-02-23T11:15:07.983Z,15.77
2019-02-23T11:17:48.687Z,16.50
2019-02-23T11:20:29.886Z,18.33
2019-02-23T11:23:10.355Z,15.70
2019-02-23T11:25:51.286Z,17.07
2019-02-23T11:28:32.035Z,18.50
2019-02-23T11:31:12.430Z,17.83
2019-02-23T11:33:52.826Z,18.07
2019-02-23T11:36:33.222Z,17.63
2019-02-23T11:39:13.761Z,15.90
2019-02-23T11:41:54.230Z,18.53
2019-02-23T11:44:34.813Z,15.47
2019-02-23T11:47:15.559Z,16.87
2019-02-23T11:49:56.442Z,15.03
2019-02-23T11:55:45.063Z,14.80
2019-02-23T11:58:25.548Z,14.33
2019-02-23T12:01:06.283Z,13.17
2019-02-23T12:03:46.734Z,14.60
2019-02-23T12:06:27.447Z,11.63
2019-02-23T12:09:07.847Z,12.10
2019-02-23T12:11:48.851Z,12.57
2019-02-23T12:14:29.425Z,12.47
2019-02-23T12:17:09.803Z,11.87
2019-02-23T12:19:50.663Z,12.30
2019-02-23T12:22:31.376Z,11.30
2019-02-23T12:25:15.683Z,12.53
2019-02-23T12:27:54.927Z,13.47
2019-02-23T12:30:35.742Z,12.87
2019-02-23T12:33:16.573Z,12.47
2019-02-23T12:39:16.823Z,14.63
2019-02-23T12:41:57.354Z,16.83
2019-02-23T12:44:37.948Z,16.50
2019-02-23T12:47:18.366Z,15.10
2019-02-23T12:49:59.418Z,15.77
2019-02-23T12:52:39.914Z,18.07
2019-02-23T12:55:20.365Z,16.07
2019-02-23T12:58:01.171Z,17.17
2019-02-23T13:00:42.613Z,16.13
2019-02-23T13:03:23.862Z,17.17
2019-02-23T13:06:04.541Z,16.33
2019-02-23T13:08:45.080Z,15.90
2019-02-23T13:11:25.574Z,13.67
2019-02-23T13:14:06.655Z,15.83
2019-02-23T13:16:47.494Z,15.97
2019-02-23T13:19:28.016Z,15.20
2019-02-23T13:22:08.896Z,12.93
2019-02-23T13:24:49.600Z,12.80
2019-02-23T13:27:30.382Z,13.30
2019-02-23T13:30:11.191Z,11.50
2019-02-23T13:32:52.151Z,13.87
2019-02-23T13:35:33.227Z,11.97
2019-02-23T13:38:13.994Z,12.63
2019-02-23T13:40:54.651Z,13.73
2019-02-23T13:43:35.447Z,13.67
2019-02-23T13:46:15.959Z,11.60
2019-02-23T13:52:04.653Z,11.53
2019-02-23T13:54:44.978Z,12.13
2019-02-23T13:57:25.399Z,14.53
2019-02-23T14:00:06.149Z,15.40
2019-02-23T14:02:46.803Z,16.03
2019-02-23T14:08:46.698Z,14.63
2019-02-23T14:11:27.587Z,13.13
2019-02-23T14:14:08.307Z,15.83
2019-02-23T14:20:08.343Z,15.00
2019-02-23T14:22:48.664Z,15.40
2019-02-23T14:25:29.354Z,17.00
2019-02-23T14:28:10.083Z,14.67
2019-02-23T14:30:50.779Z,15.70
2019-02-23T14:36:36.574Z,13.90
2019-02-23T14:39:17.430Z,13.20
2019-02-23T14:41:58.230Z,13.77
2019-02-23T14:44:38.871Z,12.53
2019-02-23T14:47:20.556Z,13.70
2019-02-23T14:50:01.236Z,14.10
2019-02-23T14:52:41.533Z,13.97
2019-02-23T14:55:22.370Z,11.90
2019-02-23T14:58:03.209Z,13.33
2019-02-23T15:00:44.082Z,13.07
2019-02-23T15:03:25.006Z,12.80
2019-02-23T15:06:05.579Z,11.07
2019-02-23T15:08:46.097Z,11.10
2019-02-23T15:11:26.694Z,12.43
2019-02-23T15:14:07.534Z,10.97
2019-02-23T15:16:48.524Z,11.17
2019-02-23T15:19:29.259Z,12.60
2019-02-23T15:22:09.731Z,12.70
2019-02-23T15:24:50.330Z,10.57
2019-02-23T15:27:30.895Z,11.33
2019-02-23T15:30:11.602Z,10.90
2019-02-23T15:32:52.371Z,10.87
2019-02-23T15:35:33.354Z,9.37
2019-02-23T15:38:14.238Z,10.47
2019-02-23T15:40:55.078Z,11.57
2019-02-23T15:46:55.143Z,9.20
2019-02-23T15:49:36.030Z,11.40
2019-02-23T15:52:16.677Z,10.07
2019-02-23T15:54:57.054Z,10.00
2019-02-23T15:57:37.750Z,9.23
2019-02-23T16:00:18.883Z,9.70
2019-02-23T16:02:59.430Z,8.80
2019-02-23T16:05:39.803Z,9.00
2019-02-23T16:08:20.499Z,8.73
2019-02-23T16:11:01.318Z,9.67
2019-02-23T16:13:41.935Z,10.10
2019-02-23T16:16:22.739Z,7.43
2019-02-23T16:19:03.569Z,10.00
2019-02-23T16:21:44.325Z,6.73
2019-02-23T16:24:24.999Z,8.30
2019-02-23T16:27:05.825Z,7.83
2019-02-23T16:29:46.531Z,7.53
2019-02-23T16:32:26.950Z,8.83
2019-02-23T16:35:07.578Z,8.03
2019-02-23T16:37:48.419Z,9.13
2019-02-23T16:40:29.071Z,8.50
2019-02-23T16:43:09.458Z,7.97
2019-02-23T16:45:38.000Z,7.90
2019-02-23T16:48:25.901Z,8.20
2019-02-23T16:51:13.843Z,7.93
2019-02-23T16:54:01.955Z,7.70
2019-02-23T16:56:49.867Z,7.47
2019-02-23T16:59:37.744Z,9.60
2019-02-23T17:02:25.651Z,9.45
2019-02-23T17:05:13.536Z,10.63
2019-02-23T17:08:01.430Z,9.87
2019-02-23T17:10:49.583Z,10.60
2019-02-23T17:13:37.544Z,10.77
2019-02-23T17:16:25.404Z,11.33
2019-02-23T17:19:13.303Z,10.53
2019-02-23T17:22:01.203Z,10.23
2019-02-23T17:24:49.096Z,12.00
2019-02-23T17:27:36.330Z,11.17
2019-02-23T17:30:12.848Z,10.83
2019-02-23T17:32:53.467Z,11.70
2019-02-23T17:35:33.978Z,11.23
2019-02-23T17:38:16.874Z,13.37
2019-02-23T17:40:56.827Z,11.77
2019-02-23T17:43:40.121Z,10.80
2019-02-23T17:46:19.546Z,11.63
2019-02-23T17:49:00.155Z,12.50
2019-02-23T17:51:40.846Z,12.03
2019-02-23T17:54:21.666Z,12.73
2019-02-23T17:57:01.947Z,12.40
2019-02-23T17:59:42.728Z,12.17
2019-02-23T18:02:23.618Z,12.40
2019-02-23T18:05:04.243Z,11.50
2019-02-23T18:07:45.294Z,12.23
2019-02-23T18:10:25.860Z,11.47
2019-02-23T18:13:06.685Z,13.47
2019-02-23T18:15:47.925Z,10.23
2019-02-23T18:18:28.758Z,13.03
2019-02-23T18:21:09.351Z,10.60
2019-02-23T18:23:50.236Z,12.83
2019-02-23T18:26:31.144Z,12.83
2019-02-23T18:29:11.839Z,12.37
2019-02-23T18:31:52.426Z,11.53
2019-02-23T18:34:33.347Z,12.17
2019-02-23T18:37:01.961Z,13.60
2019-02-23T18:39:49.934Z,13.17
2019-02-23T18:42:37.866Z,14.50
2019-02-23T18:45:25.744Z,18.80
2019-02-23T18:48:13.654Z,15.37
2019-02-23T18:51:01.536Z,16.47
2019-02-23T18:53:49.451Z,15.13
2019-02-23T18:56:37.342Z,15.17
2019-02-23T18:59:25.246Z,12.13
2019-02-23T19:02:13.125Z,13.23
2019-02-23T19:08:31.905Z,11.13
2019-02-23T19:11:19.782Z,12.47
2019-02-23T19:14:07.686Z,12.33
2019-02-23T19:16:55.580Z,11.47
2019-02-23T19:19:43.482Z,12.00
2019-02-23T19:22:31.363Z,13.77
2019-02-23T19:25:19.263Z,12.67
2019-02-23T19:27:59.961Z,13.23
2019-02-23T19:30:40.921Z,11.87
2019-02-23T19:33:21.965Z,10.23
2019-02-23T19:36:02.335Z,12.03
2019-02-23T19:38:43.436Z,11.70
2019-02-23T19:41:24.509Z,11.73
2019-02-23T19:44:05.140Z,10.63
2019-02-23T19:46:45.531Z,11.90
2019-02-23T19:49:26.001Z,10.83
2019-02-23T19:52:06.687Z,12.77
2019-02-23T19:54:47.219Z,11.03
2019-02-23T19:57:27.616Z,10.10
2019-02-23T20:00:08.419Z,12.17
2019-02-23T20:02:48.966Z,9.83
2019-02-23T20:05:29.732Z,10.17
2019-02-23T20:08:10.128Z,11.83
2019-02-23T20:10:51.296Z,13.23
2019-02-23T20:13:31.702Z,13.93
2019-02-23T20:16:12.542Z,11.83
2019-02-23T20:18:53.267Z,11.63
2019-02-23T20:21:33.647Z,12.23
2019-02-23T20:24:14.266Z,11.47
2019-02-23T20:26:55.835Z,14.80
2019-02-23T20:29:37.106Z,14.20
2019-02-23T20:32:18.278Z,11.93
2019-02-23T20:34:59.125Z,14.03
2019-02-23T20:37:40.174Z,12.33
2019-02-23T20:40:20.978Z,13.50
2019-02-23T20:43:01.822Z,13.90
2019-02-23T20:45:42.558Z,9.90
2019-02-23T20:48:23.571Z,12.90
2019-02-23T20:51:04.360Z,11.97
2019-02-23T20:53:45.031Z,13.67
2019-02-23T20:56:25.548Z,12.30
2019-02-23T20:59:06.247Z,11.83
2019-02-23T21:01:46.759Z,11.40
2019-02-23T21:04:27.298Z,11.67
2019-02-23T21:07:08.070Z,12.83
2019-02-23T21:09:48.930Z,14.63
2019-02-23T21:12:29.895Z,11.50
2019-02-23T21:15:10.874Z,10.83
2019-02-23T21:17:51.712Z,13.57
2019-02-23T21:20:32.435Z,13.07
2019-02-23T21:23:12.878Z,14.93
2019-02-23T21:25:53.639Z,13.77
2019-02-23T21:28:34.203Z,15.17
2019-02-23T21:31:14.789Z,14.63
2019-02-23T21:33:55.787Z,13.20
2019-02-23T21:36:36.611Z,12.63
2019-02-23T21:39:17.113Z,13.67
2019-02-23T21:41:57.794Z,14.43
2019-02-23T21:44:38.347Z,13.87
2019-02-23T21:47:18.762Z,15.57
2019-02-23T21:49:59.374Z,14.67
2019-02-23T21:55:24.066Z,13.77
2019-02-23T21:58:04.827Z,15.23
2019-02-23T22:00:45.667Z,14.80
2019-02-23T22:03:26.178Z,13.73
2019-02-23T22:06:06.927Z,17.23
2019-02-23T22:08:49.174Z,17.93
2019-02-23T22:11:30.248Z,15.37
2019-02-23T22:14:10.582Z,15.47
2019-02-23T22:16:51.185Z,15.53
2019-02-23T22:19:32.155Z,15.00
2019-02-23T22:22:12.907Z,13.97
2019-02-23T22:24:53.708Z,13.53
2019-02-23T22:27:34.422Z,14.97
2019-02-23T22:30:14.815Z,14.43
2019-02-23T22:32:55.445Z,14.77
2019-02-23T22:35:36.023Z,14.93
2019-02-23T22:38:16.923Z,15.53
2019-02-23T22:40:57.830Z,14.80
2019-02-23T22:43:38.668Z,15.77
2019-02-23T22:46:22.541Z,14.63
2019-02-23T22:49:03.597Z,17.20
2019-02-23T22:51:44.399Z,14.67
2019-02-23T22:54:25.182Z,14.23
2019-02-23T22:57:05.962Z,13.53
2019-02-23T22:59:46.214Z,15.30
2019-02-23T23:02:27.129Z,15.90
2019-02-23T23:05:08.352Z,13.93
2019-02-23T23:07:49.108Z,16.60
2019-02-23T23:10:29.953Z,14.00
2019-02-23T23:13:10.347Z,14.37
2019-02-23T23:15:51.310Z,15.03
2019-02-23T23:18:32.113Z,15.17
2019-02-23T23:21:12.912Z,15.93
2019-02-23T23:23:53.952Z,15.30
2019-02-23T23:26:34.583Z,12.20
2019-02-23T23:29:15.014Z,15.87
2019-02-23T23:31:55.370Z,16.30
2019-02-23T23:34:35.974Z,16.93
2019-02-23T23:37:16.734Z,17.13
2019-02-23T23:39:57.100Z,16.20
2019-02-23T23:42:37.763Z,15.40
2019-02-23T23:45:18.483Z,15.23
2019-02-23T23:47:59.079Z,15.60
2019-02-23T23:50:39.715Z,16.73
2019-02-23T23:53:20.339Z,16.70
2019-02-23T23:56:00.906Z,17.50
2019-02-23T23:58:41.412Z,14.57
